Time;durP1;ratioP1;P1;durP2;ratioP2;P2;SDS_P1;SDS_P2;PMS_P1;PMS_P2;Temp;Humidity;BMP_temperature;BMP_pressure;BME280_temperature;BME280_humidity;BME280_pressure;Samples;Min_cycle;Max_cycle;Signal;HPM_P1;HPM_P2
2023/10/02 00:02:06;;;;;;;12.82;7.00;;;;;16.30;94900.00;;;;7394644;19;20140;-80
2023/10/02 00:04:41;;;;;;;13.30;6.75;;;;;16.10;94899.00;;;;7394896;19;20616;-79
2023/10/02 00:07:25;;;;;;;15.02;7.65;;;;;16.20;94901.00;;;;7397810;19;20491;-78
2023/10/02 00:10:01;;;;;;;13.55;6.93;;;;;16.00;94897.00;;;;7396107;19;20204;-77
2023/10/02 00:12:36;;;;;;;13.45;7.57;;;;;16.20;94898.00;;;;7395920;19;20587;-78
2023/10/02 00:15:14;;;;;;;14.43;7.00;;;;;16.10;94894.00;;;;7395793;19;20147;-77
2023/10/02 00:17:49;;;;;;;16.80;8.55;;;;;16.00;94896.00;;;;7396798;19;20592;-78
2023/10/02 00:20:23;;;;;;;14.85;7.22;;;;;16.10;94891.00;;;;7395885;19;20137;-77
2023/10/02 00:23:01;;;;;;;13.95;7.70;;;;;16.00;94894.00;;;;7397616;19;20592;-77
2023/10/02 00:25:51;;;;;;;13.43;6.88;;;;;15.90;94893.00;;;;7397055;19;20622;-77
2023/10/02 00:28:33;;;;;;;12.52;7.57;;;;;16.00;94895.00;;;;7394333;19;20132;-77
2023/10/02 00:31:32;;;;;;;15.75;7.72;;;;;15.90;94888.00;;;;7395608;19;20143;-76
2023/10/02 00:34:06;;;;;;;14.15;7.22;;;;;16.00;94885.00;;;;7395162;19;20158;-77
2023/10/02 00:36:41;;;;;;;17.48;7.95;;;;;16.40;94885.00;;;;7397108;19;20128;-77
2023/10/02 00:39:30;;;;;;;17.88;8.00;;;;;16.40;94883.00;;;;7394514;19;20484;-78
2023/10/02 00:44:56;;;;;;;15.45;8.18;;;;;16.90;94871.00;;;;7400891;19;20652;-76
2023/10/02 00:47:41;;;;;;;16.38;8.60;;;;;17.20;94877.00;;;;7403498;19;20135;-77
2023/10/02 00:50:20;;;;;;;16.77;8.40;;;;;17.20;94878.00;;;;7403001;19;20133;-76
2023/10/02 00:53:03;;;;;;;15.30;8.30;;;;;17.40;94870.00;;;;7402929;19;20152;-77
2023/10/02 00:55:38;;;;;;;16.05;7.97;;;;;17.40;94871.00;;;;7402674;19;20849;-76
2023/10/02 00:58:10;;;;;;;15.90;8.27;;;;;17.40;94866.00;;;;7401430;19;20141;-76
2023/10/02 01:00:50;;;;;;;15.25;7.63;;;;;17.40;94865.00;;;;7403487;19;20132;-78
2023/10/02 01:03:24;;;;;;;15.77;8.45;;;;;17.40;94863.00;;;;7399078;19;20227;-78
2023/10/02 01:05:58;;;;;;;15.88;7.85;;;;;17.30;94865.00;;;;7402843;19;20145;-77
2023/10/02 01:08:49;;;;;;;18.30;8.20;;;;;17.30;94859.00;;;;7401522;19;20144;-78
2023/10/02 01:11:23;;;;;;;14.80;8.10;;;;;17.20;94866.00;;;;7402386;19;20145;-77
2023/10/02 01:13:54;;;;;;;17.33;8.20;;;;;17.10;94852.00;;;;7400629;19;20152;-78
2023/10/02 01:16:30;;;;;;;15.32;8.30;;;;;17.10;94846.00;;;;7401677;19;20145;-77
2023/10/02 01:19:06;;;;;;;17.20;8.10;;;;;17.10;94852.00;;;;7402857;19;20139;-78
2023/10/02 01:21:35;;;;;;;17.70;9.10;;;;;17.20;94849.00;;;;7400979;19;20738;-77
2023/10/02 01:24:17;;;;;;;16.35;8.55;;;;;17.20;94854.00;;;;7400321;19;20144;-79
2023/10/02 01:26:50;;;;;;;16.42;8.60;;;;;17.30;94847.00;;;;7402183;19;20136;-78
2023/10/02 01:29:25;;;;;;;17.33;7.93;;;;;17.30;94849.00;;;;7401631;19;20588;-79
2023/10/02 01:31:53;;;;;;;18.58;8.60;;;;;17.20;94853.00;;;;7400631;19;20612;-77
2023/10/02 01:34:33;;;;;;;18.60;9.25;;;;;17.20;94849.00;;;;7403083;19;20136;-78
2023/10/02 01:37:32;;;;;;;17.65;9.02;;;;;17.10;94847.00;;;;7401902;19;20144;-77
2023/10/02 01:40:28;;;;;;;18.90;8.82;;;;;17.20;94850.00;;;;7399124;19;20153;-78
2023/10/02 01:42:52;;;;;;;18.63;9.10;;;;;17.30;94852.00;;;;7400868;19;20137;-78
2023/10/02 01:45:34;;;;;;;18.15;9.00;;;;;17.10;94845.00;;;;7400077;19;20133;-79
2023/10/02 01:48:36;;;;;;;17.92;9.27;;;;;17.20;94840.00;;;;7400805;19;20155;-77
2023/10/02 01:51:25;;;;;;;17.42;9.00;;;;;17.10;94836.00;;;;7399959;19;20152;-77
2023/10/02 01:54:15;;;;;;;21.02;9.57;;;;;16.90;94835.00;;;;7397819;19;20609;-77
2023/10/02 01:56:51;;;;;;;19.58;8.88;;;;;16.80;94846.00;;;;7400737;19;20129;-77
2023/10/02 01:59:21;;;;;;;18.35;8.85;;;;;16.60;94838.00;;;;7401230;19;20196;-77
2023/10/02 02:01:54;;;;;;;16.65;8.52;;;;;16.60;94836.00;;;;7401660;19;20476;-77
2023/10/02 02:04:32;;;;;;;16.50;8.80;;;;;16.40;94834.00;;;;7399238;19;20208;-77
2023/10/02 02:07:02;;;;;;;19.27;9.43;;;;;16.40;94829.00;;;;7400687;19;20131;-78
2023/10/02 02:09:43;;;;;;;20.13;9.30;;;;;16.50;94840.00;;;;7397659;19;20148;-76
2023/10/02 02:12:18;;;;;;;17.20;9.32;;;;;16.40;94832.00;;;;7398913;19;20143;-78
2023/10/02 02:14:53;;;;;;;17.23;9.15;;;;;16.40;94839.00;;;;7399452;19;20161;-78
2023/10/02 02:17:28;;;;;;;17.65;9.30;;;;;16.40;94840.00;;;;7399387;19;20133;-77
2023/10/02 02:20:11;;;;;;;17.48;9.23;;;;;16.50;94841.00;;;;7399593;19;20172;-77
2023/10/02 02:22:46;;;;;;;18.83;9.38;;;;;16.50;94831.00;;;;7398804;19;20153;-76
2023/10/02 02:25:26;;;;;;;18.35;9.00;;;;;16.50;94831.00;;;;7398776;19;20165;-77
2023/10/02 02:28:06;;;;;;;20.15;9.82;;;;;16.70;94829.00;;;;7400266;19;20612;-77
2023/10/02 02:30:40;;;;;;;21.10;9.15;;;;;16.60;94831.00;;;;7399554;19;20133;-77
2023/10/02 02:33:15;;;;;;;19.35;9.38;;;;;16.60;94836.00;;;;7397801;19;20742;-77
2023/10/02 02:35:46;;;;;;;16.67;8.63;;;;;16.60;94835.00;;;;7400568;19;20131;-78
2023/10/02 02:38:21;;;;;;;19.52;9.77;;;;;16.60;94829.00;;;;7398524;19;20462;-78
2023/10/02 02:41:05;;;;;;;19.75;9.68;;;;;16.50;94827.00;;;;7398602;19;20204;-78
2023/10/02 02:43:46;;;;;;;21.63;10.55;;;;;16.50;94828.00;;;;7399613;19;20137;-78
2023/10/02 02:46:22;;;;;;;18.90;9.35;;;;;16.30;94833.00;;;;7397922;19;20168;-77
2023/10/02 02:48:56;;;;;;;20.70;9.48;;;;;16.10;94829.00;;;;7397538;19;20140;-77
2023/10/02 02:51:24;;;;;;;18.25;9.48;;;;;16.20;94833.00;;;;7399016;19;20200;-77
2023/10/02 02:54:03;;;;;;;19.75;8.85;;;;;16.30;94826.00;;;;7400012;19;20156;-77
2023/10/02 02:56:38;;;;;;;18.83;9.50;;;;;16.30;94827.00;;;;7397152;19;20148;-77
2023/10/02 02:59:13;;;;;;;17.35;8.40;;;;;16.50;94823.00;;;;7398220;19;20600;-76
2023/10/02 03:01:46;;;;;;;19.25;9.38;;;;;16.50;94820.00;;;;7398729;19;20467;-78
2023/10/02 03:04:21;;;;;;;17.38;9.13;;;;;16.50;94812.00;;;;7400388;19;20134;-77
2023/10/02 03:07:08;;;;;;;17.25;9.07;;;;;16.50;94818.00;;;;7394276;19;20155;-79
2023/10/02 03:09:49;;;;;;;19.55;10.18;;;;;16.60;94823.00;;;;7395694;19;20509;-77
2023/10/02 03:12:18;;;;;;;19.83;9.55;;;;;16.60;94812.00;;;;7397907;19;20139;-77
2023/10/02 03:14:54;;;;;;;24.30;10.07;;;;;16.70;94818.00;;;;7397392;19;20204;-79
2023/10/02 03:17:28;;;;;;;17.27;8.82;;;;;16.90;94807.00;;;;7397638;19;20167;-77
2023/10/02 03:20:06;;;;;;;18.27;9.05;;;;;16.80;94819.00;;;;7396837;19;20145;-78
2023/10/02 03:22:34;;;;;;;18.63;9.02;;;;;16.90;94819.00;;;;7397404;19;20144;-78
2023/10/02 03:25:31;;;;;;;18.48;9.20;;;;;16.90;94815.00;;;;7397482;19;20554;-78
2023/10/02 03:28:16;;;;;;;18.65;9.50;;;;;17.20;94825.00;;;;7396863;19;20164;-74
2023/10/02 03:30:51;;;;;;;19.77;9.13;;;;;17.20;94823.00;;;;7396823;19;20153;-74
2023/10/02 03:33:21;;;;;;;15.93;8.43;;;;;17.20;94820.00;;;;7399241;19;20133;-75
2023/10/02 03:35:58;;;;;;;22.27;9.70;;;;;17.30;94828.00;;;;7395806;19;20137;-74
2023/10/02 03:38:32;;;;;;;19.60;8.88;;;;;17.20;94827.00;;;;7396481;19;20224;-73
2023/10/02 03:41:06;;;;;;;20.48;9.45;;;;;17.00;94826.00;;;;7396988;19;20148;-73
2023/10/02 03:43:35;;;;;;;20.98;8.88;;;;;16.80;94829.00;;;;7397522;19;20140;-73
2023/10/02 03:46:04;;;;;;;19.80;9.43;;;;;16.60;94834.00;;;;7396245;19;20137;-74
2023/10/02 03:48:50;;;;;;;17.05;8.63;;;;;16.60;94834.00;;;;7398520;19;20140;-73
2023/10/02 03:51:36;;;;;;;19.00;9.75;;;;;16.30;94831.00;;;;7397544;19;20147;-73
2023/10/02 03:54:17;;;;;;;17.77;8.95;;;;;16.10;94844.00;;;;7395945;19;20141;-73
2023/10/02 03:56:55;;;;;;;16.10;7.80;;;;;15.90;94847.00;;;;7396916;19;20199;-74
2023/10/02 03:59:32;;;;;;;17.08;8.73;;;;;15.90;94839.00;;;;7396495;19;20525;-73
2023/10/02 04:05:06;;;;;;;15.55;7.50;;;;;15.70;94843.00;;;;7395730;19;20219;-74
2023/10/02 04:07:35;;;;;;;16.33;8.05;;;;;15.60;94848.00;;;;7396338;19;20140;-74
2023/10/02 04:10:19;;;;;;;16.58;7.38;;;;;15.40;94840.00;;;;7395637;19;20136;-74
2023/10/02 04:12:53;;;;;;;15.98;8.32;;;;;15.30;94841.00;;;;7394666;19;20608;-75
2023/10/02 04:15:26;;;;;;;15.43;7.93;;;;;15.20;94835.00;;;;7394284;19;20156;-75
2023/10/02 04:17:54;;;;;;;14.52;7.43;;;;;15.10;94840.00;;;;7396604;19;20608;-73
2023/10/02 04:20:30;;;;;;;18.67;8.13;;;;;14.90;94843.00;;;;7394908;19;20203;-72
2023/10/02 04:23:18;;;;;;;16.20;8.13;;;;;14.80;94845.00;;;;7395958;19;20133;-75
2023/10/02 04:25:52;;;;;;;15.75;7.78;;;;;14.60;94842.00;;;;7395065;19;20151;-74
2023/10/02 04:28:27;;;;;;;14.55;7.55;;;;;14.50;94842.00;;;;7395013;19;20172;-74
2023/10/02 04:31:05;;;;;;;14.93;7.60;;;;;14.40;94841.00;;;;7394411;19;20136;-74
2023/10/02 04:33:38;;;;;;;11.70;6.60;;;;;14.40;94837.00;;;;7395946;19;20157;-75
2023/10/02 04:36:14;;;;;;;13.05;6.93;;;;;14.60;94842.00;;;;7395408;19;20634;-73
2023/10/02 04:38:49;;;;;;;10.88;6.28;;;;;14.40;94842.00;;;;7395039;19;20121;-73
2023/10/02 04:41:26;;;;;;;13.50;6.72;;;;;14.40;94842.00;;;;7395491;19;20188;-75
2023/10/02 04:44:04;;;;;;;11.52;6.30;;;;;14.40;94839.00;;;;7396370;19;20596;-76
2023/10/02 04:46:45;;;;;;;18.17;6.63;;;;;14.40;94839.00;;;;7393579;19;20145;-75
2023/10/02 04:49:20;;;;;;;11.55;6.30;;;;;14.40;94840.00;;;;7394729;19;20145;-75
2023/10/02 04:51:48;;;;;;;12.63;6.38;;;;;14.50;94830.00;;;;7395651;19;20466;-75
2023/10/02 04:54:23;;;;;;;11.73;5.70;;;;;14.40;94837.00;;;;7395348;19;20591;-74
2023/10/02 04:57:14;;;;;;;14.25;6.80;;;;;14.50;94835.00;;;;7394764;19;20599;-74
2023/10/02 04:59:51;;;;;;;12.15;6.75;;;;;14.70;94835.00;;;;7394998;19;20136;-73
2023/10/02 05:02:26;;;;;;;12.18;6.53;;;;;14.70;94834.00;;;;7395020;19;20622;-76
2023/10/02 05:04:56;;;;;;;13.55;6.80;;;;;14.70;94829.00;;;;7394377;19;20600;-75
2023/10/02 05:07:31;;;;;;;12.07;6.20;;;;;14.60;94838.00;;;;7392618;19;20567;-75
2023/10/02 05:10:06;;;;;;;12.60;6.75;;;;;14.50;94832.00;;;;7393377;19;20141;-74
2023/10/02 05:12:44;;;;;;;12.35;6.78;;;;;14.60;94842.00;;;;7391352;19;20615;-74
2023/10/02 05:15:20;;;;;;;12.35;6.95;;;;;14.60;94838.00;;;;7390193;19;20603;-75
2023/10/02 05:17:49;;;;;;;11.93;6.45;;;;;14.70;94829.00;;;;7392127;19;20141;-74
2023/10/02 05:20:26;;;;;;;14.85;6.65;;;;;14.70;94829.00;;;;7392721;19;20156;-74
2023/10/02 05:22:58;;;;;;;15.77;7.25;;;;;14.70;94830.00;;;;7392906;19;20145;-73
2023/10/02 05:25:36;;;;;;;12.15;6.40;;;;;14.70;94836.00;;;;7390334;19;20137;-75
2023/10/02 05:28:11;;;;;;;14.40;6.93;;;;;14.90;94841.00;;;;7392494;19;20208;-74
2023/10/02 05:30:43;;;;;;;15.15;7.05;;;;;14.90;94838.00;;;;7396759;19;20168;-75
2023/10/02 05:33:36;;;;;;;12.80;7.15;;;;;14.90;94842.00;;;;7399985;19;20573;-74
2023/10/02 05:36:07;;;;;;;16.15;7.28;;;;;14.90;94851.00;;;;7400747;19;20141;-74
2023/10/02 05:39:05;;;;;;;16.27;7.22;;;;;15.10;94849.00;;;;7398596;19;20172;-75
2023/10/02 05:41:44;;;;;;;13.63;6.72;;;;;15.40;94851.00;;;;7400729;19;20129;-73
2023/10/02 05:44:25;;;;;;;13.50;7.15;;;;;15.60;94855.00;;;;7401939;19;20148;-75
2023/10/02 05:46:57;;;;;;;13.60;6.90;;;;;15.60;94849.00;;;;7400643;19;20137;-74
2023/10/02 05:49:48;;;;;;;13.85;6.38;;;;;15.60;94854.00;;;;7399644;19;20145;-74
2023/10/02 05:52:20;;;;;;;14.65;7.18;;;;;15.20;94856.00;;;;7394831;19;20132;-75
2023/10/02 05:54:55;;;;;;;14.68;6.97;;;;;15.10;94854.00;;;;7396785;19;20213;-76
2023/10/02 05:57:23;;;;;;;12.23;6.60;;;;;14.90;94857.00;;;;7400375;19;20125;-75
2023/10/02 05:59:54;;;;;;;14.05;7.10;;;;;14.90;94852.00;;;;7399410;19;20163;-75
2023/10/02 06:02:31;;;;;;;15.68;7.88;;;;;14.90;94865.00;;;;7398284;19;20171;-75
2023/10/02 06:05:11;;;;;;;15.23;6.45;;;;;15.10;94853.00;;;;7399847;19;20133;-75
2023/10/02 06:07:51;;;;;;;12.75;7.05;;;;;15.40;94853.00;;;;7395275;19;20172;-75
2023/10/02 06:10:34;;;;;;;13.05;7.13;;;;;15.60;94856.00;;;;7399752;19;20139;-76
2023/10/02 06:13:09;;;;;;;12.82;7.10;;;;;15.70;94860.00;;;;7398573;19;20129;-76
2023/10/02 06:15:46;;;;;;;13.25;6.38;;;;;15.90;94856.00;;;;7395862;19;20148;-73
2023/10/02 06:18:30;;;;;;;13.45;6.68;;;;;16.10;94858.00;;;;7397623;19;20260;-75
2023/10/02 06:21:04;;;;;;;12.50;6.63;;;;;16.30;94861.00;;;;7398846;19;20137;-76
2023/10/02 06:23:39;;;;;;;16.42;7.30;;;;;16.30;94858.00;;;;7396953;19;20145;-75
2023/10/02 06:26:19;;;;;;;13.48;6.88;;;;;16.50;94857.00;;;;7400161;19;20140;-75
2023/10/02 06:29:13;;;;;;;15.50;7.75;;;;;16.60;94843.00;;;;7396531;19;20137;-73
2023/10/02 06:31:51;;;;;;;12.52;7.20;;;;;16.60;94857.00;;;;7397288;19;20137;-76
2023/10/02 06:34:36;;;;;;;13.07;6.55;;;;;16.60;94859.00;;;;7396620;19;20462;-75
2023/10/02 06:37:16;;;;;;;11.57;6.68;;;;;16.70;94855.00;;;;7399558;19;20283;-75
2023/10/02 06:39:47;;;;;;;14.07;6.63;;;;;16.90;94870.00;;;;7397470;19;20959;-75
2023/10/02 06:42:22;;;;;;;13.68;6.68;;;;;17.00;94869.00;;;;7396297;19;20602;-74
2023/10/02 06:44:52;;;;;;;13.63;6.30;;;;;17.20;94862.00;;;;7396477;19;20129;-74
2023/10/02 06:47:23;;;;;;;12.35;6.45;;;;;17.40;94864.00;;;;7394865;19;20157;-73
2023/10/02 06:50:27;;;;;;;13.18;6.80;;;;;17.50;94866.00;;;;7396569;19;20156;-77
2023/10/02 06:52:54;;;;;;;12.38;6.65;;;;;17.70;94867.00;;;;7397262;19;20639;-75
2023/10/02 06:55:32;;;;;;;13.93;7.07;;;;;17.90;94866.00;;;;7398208;19;20129;-74
2023/10/02 06:58:00;;;;;;;12.32;6.57;;;;;18.00;94865.00;;;;7391471;19;20129;-76
2023/10/02 07:00:54;;;;;;;11.13;6.35;;;;;18.40;94868.00;;;;7392674;19;20152;-76
2023/10/02 07:03:24;;;;;;;12.10;7.18;;;;;18.70;94869.00;;;;7394903;19;20511;-75
2023/10/02 07:05:59;;;;;;;12.40;7.15;;;;;19.00;94878.00;;;;7394986;19;20137;-77
2023/10/02 07:08:41;;;;;;;13.15;6.47;;;;;19.30;94873.00;;;;7397273;19;20157;-77
2023/10/02 07:11:22;;;;;;;13.00;6.82;;;;;19.50;94829.00;;;;7394920;19;20137;-76
2023/10/02 07:14:03;;;;;;;14.55;8.15;;;;;19.50;94866.00;;;;7394949;19;20477;-76
2023/10/02 07:16:38;;;;;;;14.63;7.38;;;;;19.50;94867.00;;;;7389752;19;20128;-78
2023/10/02 07:19:16;;;;;;;11.95;6.38;;;;;19.70;94862.00;;;;7396377;19;20133;-78
2023/10/02 07:21:51;;;;;;;11.95;6.15;;;;;19.90;94860.00;;;;7396399;19;20718;-78
2023/10/02 07:24:28;;;;;;;15.25;7.32;;;;;19.90;94866.00;;;;7393735;19;20481;-78
2023/10/02 07:27:02;;;;;;;13.95;7.00;;;;;20.00;94865.00;;;;7393080;19;20144;-76
2023/10/02 07:29:39;;;;;;;12.70;7.05;;;;;20.20;94859.00;;;;7397458;19;20137;-77
2023/10/02 07:32:09;;;;;;;11.60;6.80;;;;;20.00;94857.00;;;;7398348;19;20133;-77
2023/10/02 07:34:46;;;;;;;15.25;7.60;;;;;20.30;94861.00;;;;7395085;19;20449;-77
2023/10/02 07:37:16;;;;;;;12.18;6.80;;;;;20.40;94860.00;;;;7395867;19;20699;-79
2023/10/02 07:39:56;;;;;;;10.65;6.85;;;;;20.60;94856.00;;;;7398036;19;20148;-79
2023/10/02 07:42:26;;;;;;;11.68;7.03;;;;;20.80;94853.00;;;;7396426;19;20144;-78
2023/10/02 07:48:10;;;;;;;13.13;7.45;;;;;21.20;94856.00;;;;7393167;19;20251;-77
2023/10/02 07:50:45;;;;;;;13.38;7.25;;;;;21.40;94855.00;;;;7398012;19;20129;-78
2023/10/02 07:53:38;;;;;;;13.30;7.10;;;;;21.50;94854.00;;;;7396478;19;20129;-78
2023/10/02 07:56:16;;;;;;;13.13;7.72;;;;;21.60;94856.00;;;;7397763;19;20146;-77
2023/10/02 07:58:54;;;;;;;12.15;7.05;;;;;21.80;94855.00;;;;7396878;19;20137;-81
2023/10/02 08:01:33;;;;;;;12.98;7.93;;;;;21.70;94857.00;;;;7395898;19;20165;-79
2023/10/02 08:04:07;;;;;;;12.30;6.97;;;;;22.00;94855.00;;;;7395700;19;20661;-78
2023/10/02 08:06:37;;;;;;;12.13;7.13;;;;;22.20;94847.00;;;;7396616;19;20129;-78
2023/10/02 08:09:47;;;;;;;13.63;7.78;;;;;22.10;94849.00;;;;7393503;19;20164;-74
2023/10/02 08:12:29;;;;;;;15.23;8.43;;;;;22.30;94842.00;;;;7396284;19;20145;-74
2023/10/02 08:15:26;;;;;;;11.90;7.18;;;;;22.60;94837.00;;;;7397047;19;20663;-74
2023/10/02 08:20:37;;;;;;;12.93;7.45;;;;;22.70;94843.00;;;;7393998;19;20142;-73
2023/10/02 08:23:22;;;;;;;16.38;7.97;;;;;23.10;94847.00;;;;7394373;19;20166;-74
2023/10/02 08:26:03;;;;;;;10.63;6.90;;;;;23.10;94840.00;;;;7394107;19;20137;-74
2023/10/02 08:28:53;;;;;;;12.90;7.50;;;;;23.00;94846.00;;;;7393672;19;20151;-76
2023/10/02 08:31:32;;;;;;;16.10;8.65;;;;;23.50;94851.00;;;;7396843;19;20245;-74
2023/10/02 08:34:05;;;;;;;12.77;7.28;;;;;23.90;94851.00;;;;7396054;19;20125;-74
2023/10/02 08:36:42;;;;;;;12.25;7.30;;;;;23.90;94847.00;;;;7395659;19;20147;-77
2023/10/02 08:39:22;;;;;;;14.25;8.00;;;;;24.10;94838.00;;;;7393941;19;20140;-74
2023/10/02 08:41:59;;;;;;;15.23;8.20;;;;;24.00;94843.00;;;;7396131;19;20128;-73
2023/10/02 08:44:37;;;;;;;12.93;8.00;;;;;24.10;94846.00;;;;7394174;19;20323;-73
2023/10/02 08:47:24;;;;;;;13.50;8.32;;;;;24.50;94840.00;;;;7393976;19;20124;-74
2023/10/02 08:50:04;;;;;;;14.02;7.72;;;;;24.70;94838.00;;;;7395592;19;20510;-74
2023/10/02 08:52:38;;;;;;;12.90;7.85;;;;;24.70;94835.00;;;;7394341;19;20167;-74
2023/10/02 08:55:54;;;;;;;12.85;7.78;;;;;24.80;94836.00;;;;7393104;19;20626;-74
2023/10/02 08:58:29;;;;;;;13.63;8.13;;;;;25.00;94833.00;;;;7392309;19;20588;-75
2023/10/02 09:06:49;;;;;;;13.57;8.10;;;;;25.30;94841.00;;;;7399249;19;20148;-76
2023/10/02 09:09:35;;;;;;;13.55;8.00;;;;;25.30;94838.00;;;;7398088;19;20173;-75
2023/10/02 09:12:15;;;;;;;14.05;7.90;;;;;25.60;94845.00;;;;7399944;19;20152;-75
2023/10/02 09:14:43;;;;;;;13.57;7.60;;;;;25.70;94835.00;;;;7402198;19;20615;-76
2023/10/02 09:17:19;;;;;;;13.35;8.20;;;;;25.40;94843.00;;;;7403691;19;20595;-75
2023/10/02 09:20:02;;;;;;;12.80;7.93;;;;;25.60;94842.00;;;;7400159;19;20141;-76
2023/10/02 09:22:38;;;;;;;15.75;8.63;;;;;26.10;94838.00;;;;7400890;19;20137;-75
2023/10/02 09:25:15;;;;;;;16.98;9.27;;;;;25.90;94837.00;;;;7399592;19;20141;-76
2023/10/02 09:27:57;;;;;;;15.63;8.63;;;;;26.20;94843.00;;;;7400675;19;20143;-75
2023/10/02 09:30:36;;;;;;;15.02;8.73;;;;;26.20;94837.00;;;;7399369;19;20599;-74
2023/10/02 09:33:23;;;;;;;18.92;9.13;;;;;26.50;94840.00;;;;7399736;19;20156;-74
2023/10/02 09:36:12;;;;;;;12.95;8.10;;;;;26.50;94841.00;;;;7376175;19;20136;-77
2023/10/02 09:39:31;;;;;;;16.33;8.70;;;;;26.70;94831.00;;;;7287720;19;2004742;-74
2023/10/02 09:42:09;;;;;;;15.35;9.00;;;;;26.50;94834.00;;;;7395503;19;20125;-76
2023/10/02 09:44:45;;;;;;;15.45;8.93;;;;;26.60;94834.00;;;;7394030;19;20644;-75
2023/10/02 09:47:25;;;;;;;16.25;9.68;;;;;26.60;94832.00;;;;7392661;19;20161;-73
2023/10/02 09:50:26;;;;;;;15.73;9.38;;;;;26.70;94829.00;;;;7392011;19;20509;-73
2023/10/02 09:53:08;;;;;;;15.93;9.75;;;;;26.90;94828.00;;;;7382843;19;20143;-75
2023/10/02 09:55:50;;;;;;;14.43;9.07;;;;;26.80;94817.00;;;;7388543;19;20133;-76
2023/10/02 09:58:44;;;;;;;14.90;9.98;;;;;27.00;94816.00;;;;7390616;19;20165;-75
2023/10/02 10:04:08;;;;;;;17.58;10.02;;;;;27.20;94823.00;;;;7388343;19;20228;-76
2023/10/02 10:06:48;;;;;;;16.85;9.68;;;;;27.20;94826.00;;;;7386442;19;20140;-75
2023/10/02 10:09:50;;;;;;;13.45;8.57;;;;;27.30;94822.00;;;;7386656;19;20634;-74
2023/10/02 10:12:55;;;;;;;18.38;10.23;;;;;27.30;94823.00;;;;7387522;19;20172;-74
2023/10/02 10:15:31;;;;;;;17.05;9.75;;;;;27.10;94816.00;;;;7387208;19;20128;-76
2023/10/02 10:18:03;;;;;;;17.25;9.88;;;;;27.40;94809.00;;;;7387602;19;21973;-77
2023/10/02 10:20:44;;;;;;;16.23;8.75;;;;;27.60;94811.00;;;;7386284;19;20644;-76
2023/10/02 10:23:31;;;;;;;18.83;9.43;;;;;27.60;94808.00;;;;7387310;19;20726;-73
2023/10/02 10:26:37;;;;;;;16.60;10.05;;;;;27.70;94809.00;;;;7388614;19;20139;-75
2023/10/02 10:29:41;;;;;;;14.63;8.60;;;;;27.70;94806.00;;;;7386421;19;20488;-81
2023/10/02 10:32:23;;;;;;;14.40;8.75;;;;;27.60;94807.00;;;;7387176;19;20152;-81
2023/10/02 10:35:19;;;;;;;15.00;8.88;;;;;27.60;94800.00;;;;7386909;19;20585;-81
2023/10/02 10:37:56;;;;;;;17.17;8.98;;;;;28.00;94805.00;;;;7389502;19;20128;-76
2023/10/02 10:40:44;;;;;;;25.05;10.43;;;;;28.00;94801.00;;;;7388707;19;20613;-79
2023/10/02 10:43:18;;;;;;;15.05;8.75;;;;;28.60;94799.00;;;;7386144;19;20141;-81
2023/10/02 10:45:48;;;;;;;14.00;9.05;;;;;28.80;94804.00;;;;7386606;19;20243;-82
2023/10/02 10:48:24;;;;;;;14.85;9.10;;;;;28.80;94799.00;;;;7386084;19;20469;-82
2023/10/02 10:50:59;;;;;;;14.75;9.40;;;;;28.60;94798.00;;;;7386517;19;20132;-80
2023/10/02 10:53:39;;;;;;;15.70;9.30;;;;;29.00;94802.00;;;;7386764;19;20151;-80
2023/10/02 10:56:17;;;;;;;14.95;8.90;;;;;29.00;94797.00;;;;7385692;19;20248;-82
2023/10/02 10:59:10;;;;;;;16.92;9.95;;;;;28.90;94803.00;;;;7387394;19;20136;-81
2023/10/02 11:02:15;;;;;;;14.40;9.05;;;;;29.10;94800.00;;;;7387024;19;21684;-78
2023/10/02 11:04:50;;;;;;;16.00;10.13;;;;;29.50;94794.00;;;;7385862;19;20603;-80
2023/10/02 11:07:26;;;;;;;15.63;9.00;;;;;29.40;94793.00;;;;7386018;19;20741;-81
2023/10/02 11:10:19;;;;;;;20.80;10.45;;;;;29.60;94792.00;;;;7387968;19;20152;-82
2023/10/02 11:13:02;;;;;;;15.45;9.15;;;;;29.90;94790.00;;;;7388654;19;20131;-82
2023/10/02 11:15:46;;;;;;;16.77;9.43;;;;;30.20;94795.00;;;;7386781;19;20162;-85
2023/10/02 11:18:23;;;;;;;17.35;9.65;;;;;30.20;94796.00;;;;7387155;19;21287;-84
2023/10/02 11:20:57;;;;;;;16.23;9.32;;;;;29.90;94795.00;;;;7385827;19;20603;-83
2023/10/02 11:23:37;;;;;;;16.38;10.27;;;;;30.40;94793.00;;;;7386024;19;20136;-83
2023/10/02 11:26:13;;;;;;;15.30;9.38;;;;;30.60;94789.00;;;;7385088;19;20167;-83
2023/10/02 11:28:49;;;;;;;16.80;10.05;;;;;31.00;94786.00;;;;7383436;19;20174;-80
2023/10/02 11:31:32;;;;;;;16.23;10.02;;;;;31.60;94783.00;;;;7389012;19;20654;-80
2023/10/02 11:34:02;;;;;;;17.08;10.20;;;;;31.70;94781.00;;;;7384713;19;20167;-82
2023/10/02 11:36:50;;;;;;;21.35;9.35;;;;;31.60;94783.00;;;;7385438;19;20128;-80
2023/10/02 11:39:19;;;;;;;17.08;10.30;;;;;32.30;94779.00;;;;7384472;19;20128;-79
2023/10/02 11:41:54;;;;;;;16.10;9.43;;;;;32.30;94773.00;;;;7387597;19;20583;-78
2023/10/02 11:44:22;;;;;;;17.60;10.88;;;;;32.30;94772.00;;;;7384297;19;20124;-75
2023/10/02 11:46:56;;;;;;;17.85;10.35;;;;;32.40;94771.00;;;;7385860;19;20581;-75
2023/10/02 11:49:31;;;;;;;14.45;9.23;;;;;32.00;94772.00;;;;7384262;19;20211;-76
2023/10/02 11:52:02;;;;;;;15.82;9.98;;;;;32.20;94759.00;;;;7385374;19;20140;-76
2023/10/02 11:54:36;;;;;;;15.10;9.60;;;;;32.20;94761.00;;;;7383370;19;20651;-74
2023/10/02 11:57:12;;;;;;;20.35;10.35;;;;;31.90;94763.00;;;;7385357;19;20133;-77
2023/10/02 11:59:50;;;;;;;15.70;9.77;;;;;31.90;94757.00;;;;7384772;19;20156;-76
2023/10/02 12:02:25;;;;;;;17.02;10.23;;;;;31.80;94753.00;;;;7384069;19;20175;-74
2023/10/02 12:04:54;;;;;;;17.48;10.63;;;;;31.40;94751.00;;;;7384599;19;20572;-76
2023/10/02 12:07:28;;;;;;;15.30;10.32;;;;;31.40;94748.00;;;;7385490;19;20456;-76
2023/10/02 12:10:15;;;;;;;16.95;10.50;;;;;31.20;94748.00;;;;7385316;19;20670;-76
2023/10/02 12:12:56;;;;;;;16.77;10.05;;;;;31.10;94746.00;;;;7383359;19;20612;-76
2023/10/02 12:15:33;;;;;;;19.65;10.73;;;;;31.30;94741.00;;;;7383573;19;20187;-76
2023/10/02 12:18:01;;;;;;;15.80;9.57;;;;;31.90;94745.00;;;;7384298;19;20149;-78
2023/10/02 12:20:40;;;;;;;14.75;9.60;;;;;31.80;94734.00;;;;7383567;19;20148;-73
2023/10/02 12:23:09;;;;;;;13.85;9.23;;;;;32.00;94735.00;;;;7383932;19;20139;-74
2023/10/02 12:25:48;;;;;;;15.13;9.75;;;;;32.60;94728.00;;;;7385586;19;20144;-74
2023/10/02 12:28:22;;;;;;;16.40;10.38;;;;;33.20;94723.00;;;;7385413;19;20599;-74
2023/10/02 12:30:50;;;;;;;13.93;9.50;;;;;33.20;94718.00;;;;7381469;19;20152;-76
2023/10/02 12:33:24;;;;;;;15.00;10.10;;;;;33.40;94713.00;;;;7384646;19;20124;-75
2023/10/02 12:35:58;;;;;;;16.23;10.32;;;;;33.60;94719.00;;;;7384169;19;20151;-75
2023/10/02 12:38:26;;;;;;;16.35;10.07;;;;;34.60;94721.00;;;;7383284;19;20124;-75
2023/10/02 12:41:00;;;;;;;13.60;9.05;;;;;34.50;94717.00;;;;7384242;19;20132;-77
2023/10/02 12:43:29;;;;;;;14.10;9.88;;;;;33.90;94705.00;;;;7382916;19;20140;-74
2023/10/02 12:46:06;;;;;;;15.55;9.57;;;;;34.40;94711.00;;;;7382283;19;20163;-75
2023/10/02 12:48:34;;;;;;;14.40;8.90;;;;;34.80;94709.00;;;;7382712;19;20158;-76
2023/10/02 12:51:10;;;;;;;15.20;9.68;;;;;35.00;94702.00;;;;7383343;19;20138;-75
2023/10/02 12:53:38;;;;;;;13.80;9.60;;;;;35.20;94698.00;;;;7383002;19;20148;-76
2023/10/02 12:56:24;;;;;;;14.23;9.50;;;;;35.40;94703.00;;;;7384146;19;20463;-76
2023/10/02 12:58:57;;;;;;;15.30;9.32;;;;;35.20;94703.00;;;;7380492;19;20132;-75
2023/10/02 13:01:33;;;;;;;16.88;9.98;;;;;35.00;94697.00;;;;7383143;19;20758;-76
2023/10/02 13:04:01;;;;;;;18.42;10.52;;;;;34.70;94695.00;;;;7383347;19;20652;-78
2023/10/02 13:06:36;;;;;;;13.57;9.60;;;;;34.20;94697.00;;;;7381696;19;20602;-75
2023/10/02 13:09:32;;;;;;;15.13;9.50;;;;;34.00;94690.00;;;;7381012;19;20179;-75
2023/10/02 13:12:07;;;;;;;13.70;9.82;;;;;34.10;94692.00;;;;7384346;19;20139;-76
2023/10/02 13:14:44;;;;;;;16.80;10.38;;;;;33.90;94688.00;;;;7380784;19;20496;-77
2023/10/02 13:17:12;;;;;;;15.57;10.13;;;;;33.20;94692.00;;;;7383289;19;20139;-73
2023/10/02 13:19:46;;;;;;;17.98;10.27;;;;;33.40;94688.00;;;;7382718;19;20216;-75
2023/10/02 13:22:14;;;;;;;15.60;10.27;;;;;33.00;94682.00;;;;7381829;19;20203;-74